createdAt,value
2019-02-27T00:01:16.943Z,0.72
2019-02-27T00:03:48.889Z,0.71
2019-02-27T00:06:21.106Z,0.57
2019-02-27T00:08:52.870Z,0.45
2019-02-27T00:11:24.979Z,0.39
2019-02-27T00:13:57.958Z,0.35
2019-02-27T00:16:30.402Z,0.32
2019-02-27T00:19:02.309Z,0.37
2019-02-27T00:21:34.066Z,0.40
2019-02-27T00:24:06.231Z,0.39
2019-02-27T00:26:39.519Z,0.38
2019-02-27T00:29:11.921Z,0.29
2019-02-27T00:31:46.055Z,0.29
2019-02-27T00:34:17.793Z,0.24
2019-02-27T00:36:49.695Z,0.07
2019-02-27T00:39:21.531Z,-0.11
2019-02-27T00:41:53.370Z,0.23
2019-02-27T00:44:25.126Z,0.55
2019-02-27T00:46:57.852Z,0.53
2019-02-27T00:49:29.820Z,0.48
2019-02-27T00:52:03.256Z,0.46
2019-02-27T00:54:42.168Z,0.44
2019-02-27T00:57:15.302Z,0.47
2019-02-27T00:59:47.109Z,0.44
2019-02-27T01:02:20.280Z,0.28
2019-02-27T01:04:52.645Z,0.08
2019-02-27T01:07:24.497Z,-0.08
2019-02-27T01:09:56.245Z,-0.10
2019-02-27T01:12:28.013Z,0.01
2019-02-27T01:14:59.851Z,-0.01
2019-02-27T01:17:31.706Z,-0.18
2019-02-27T01:20:03.637Z,-0.33
2019-02-27T01:22:35.496Z,-0.50
2019-02-27T01:25:07.998Z,-0.67
2019-02-27T01:27:39.840Z,-0.59
2019-02-27T01:30:13.325Z,-0.49
2019-02-27T01:32:45.240Z,-0.42
2019-02-27T01:35:18.740Z,-0.45
2019-02-27T01:37:50.973Z,-0.49
2019-02-27T01:40:22.822Z,-0.59
2019-02-27T01:42:54.664Z,-0.51
2019-02-27T01:45:26.564Z,-0.61
2019-02-27T01:47:58.480Z,-0.71
2019-02-27T01:50:36.058Z,-0.82
2019-02-27T01:53:09.485Z,-0.76
2019-02-27T01:55:41.397Z,-0.70
2019-02-27T01:58:13.320Z,-0.71
2019-02-27T02:00:45.733Z,-0.69
2019-02-27T02:03:17.831Z,-0.67
2019-02-27T02:05:49.585Z,-0.63
2019-02-27T02:08:21.713Z,-0.51
2019-02-27T02:10:58.894Z,-0.63
2019-02-27T02:13:48.039Z,-0.61
2019-02-27T02:17:07.449Z,-0.67
2019-02-27T02:20:21.052Z,-0.63
2019-02-27T02:24:03.194Z,-0.66
2019-02-27T02:27:26.783Z,-0.86
2019-02-27T02:30:38.261Z,-0.97
2019-02-27T02:34:22.212Z,-1.12
2019-02-27T02:37:37.797Z,-1.15
2019-02-27T02:41:36.166Z,-1.27
2019-02-27T02:45:00.908Z,-1.17
2019-02-27T02:48:19.896Z,-1.13
2019-02-27T02:51:37.470Z,-1.18
2019-02-27T02:55:32.282Z,-1.16
2019-02-27T02:59:02.975Z,-1.04
2019-02-27T03:02:13.532Z,-0.89
2019-02-27T03:05:58.492Z,-0.71
2019-02-27T03:08:59.425Z,-0.66
2019-02-27T03:12:17.688Z,-0.63
2019-02-27T03:15:37.747Z,-0.70
2019-02-27T03:19:08.848Z,-0.71
2019-02-27T03:22:40.394Z,-0.70
2019-02-27T03:25:44.841Z,-0.81
2019-02-27T03:29:33.559Z,-1.08
2019-02-27T03:32:50.762Z,-1.25
2019-02-27T03:36:03.460Z,-1.40
2019-02-27T03:39:34.342Z,-1.52
2019-02-27T03:42:52.881Z,-1.55
2019-02-27T03:46:06.275Z,-1.62
2019-02-27T03:49:13.560Z,-1.64
2019-02-27T03:52:37.356Z,-1.53
2019-02-27T03:56:00.992Z,-1.56
2019-02-27T03:58:48.589Z,-1.52
2019-02-27T04:02:05.787Z,-1.57
2019-02-27T04:05:05.188Z,-1.70
2019-02-27T04:08:27.943Z,-1.81
2019-02-27T04:11:05.606Z,-1.93
2019-02-27T04:13:33.267Z,-1.99
2019-02-27T04:16:05.214Z,-1.85
2019-02-27T04:18:34.965Z,-1.87
2019-02-27T04:21:06.820Z,-1.80
2019-02-27T04:23:38.655Z,-1.75
2019-02-27T04:28:49.288Z,-1.72
2019-02-27T04:31:21.165Z,-1.77
2019-02-27T04:33:52.942Z,-1.75
2019-02-27T04:36:24.790Z,-1.67
2019-02-27T04:38:56.546Z,-1.63
2019-02-27T04:41:28.384Z,-1.49
2019-02-27T04:44:00.143Z,-1.46
2019-02-27T04:46:31.903Z,-1.51
2019-02-27T04:49:04.947Z,-1.47
2019-02-27T04:51:37.960Z,-1.48
2019-02-27T04:54:09.722Z,-1.60
2019-02-27T04:56:41.502Z,-1.55
2019-02-27T04:59:18.241Z,-1.57
2019-02-27T05:01:47.016Z,-1.64
2019-02-27T05:04:18.775Z,-1.69
2019-02-27T05:06:50.561Z,-1.67
2019-02-27T05:09:22.345Z,-1.67
2019-02-27T05:11:54.111Z,-1.67
2019-02-27T05:14:27.337Z,-1.77
2019-02-27T05:16:59.716Z,-1.85
2019-02-27T05:19:31.488Z,-1.90
2019-02-27T05:22:03.259Z,-1.90
2019-02-27T05:24:35.089Z,-1.88
2019-02-27T05:27:07.190Z,-1.94
2019-02-27T05:29:39.216Z,-1.90
2019-02-27T05:32:12.304Z,-1.87
2019-02-27T05:34:49.340Z,-1.91
2019-02-27T05:37:17.685Z,-1.90
2019-02-27T05:39:51.227Z,-2.05
2019-02-27T05:42:23.006Z,-2.12
2019-02-27T05:44:55.901Z,-2.18
2019-02-27T05:47:29.065Z,-2.15
2019-02-27T05:50:01.516Z,-2.15
2019-02-27T05:52:33.440Z,-2.12
2019-02-27T05:55:06.947Z,-2.11
2019-02-27T05:57:39.003Z,-2.10
2019-02-27T06:00:15.754Z,-2.10
2019-02-27T06:02:47.772Z,-2.16
2019-02-27T06:05:19.696Z,-2.10
2019-02-27T06:07:51.473Z,-2.09
2019-02-27T06:10:23.689Z,-2.08
2019-02-27T06:12:55.613Z,-2.11
2019-02-27T06:15:28.590Z,-1.99
2019-02-27T06:18:01.003Z,-2.03
2019-02-27T06:20:32.772Z,-2.05
2019-02-27T06:23:05.063Z,-2.00
2019-02-27T06:25:36.844Z,-2.07
2019-02-27T06:28:08.952Z,-2.12
2019-02-27T06:30:40.802Z,-2.07
2019-02-27T06:33:12.568Z,-2.07
2019-02-27T06:35:44.485Z,-2.04
2019-02-27T06:38:16.526Z,-2.02
2019-02-27T06:40:48.604Z,-2.03
2019-02-27T06:43:20.777Z,-1.98
2019-02-27T06:45:54.283Z,-1.99
2019-02-27T06:48:26.098Z,-1.89
2019-02-27T06:50:58.305Z,-1.88
2019-02-27T06:53:31.616Z,-1.82
2019-02-27T06:56:04.527Z,-1.76
2019-02-27T06:58:36.379Z,-1.68
2019-02-27T07:01:09.683Z,-1.63
2019-02-27T07:03:43.092Z,-1.56
2019-02-27T07:06:14.933Z,-1.45
2019-02-27T07:08:47.232Z,-1.41
2019-02-27T07:11:19.050Z,-1.37
2019-02-27T07:13:50.892Z,-1.29
2019-02-27T07:16:23.571Z,-1.18
2019-02-27T07:18:55.529Z,-1.04
2019-02-27T07:21:32.541Z,-0.90
2019-02-27T07:24:01.000Z,-0.80
2019-02-27T07:26:34.070Z,-0.69
2019-02-27T07:29:05.900Z,-0.53
2019-02-27T07:31:38.193Z,-0.39
2019-02-27T07:34:14.231Z,-0.27
2019-02-27T07:36:45.299Z,-0.15
2019-02-27T07:39:17.096Z,-0.02
2019-02-27T07:41:48.908Z,0.13
2019-02-27T07:44:20.688Z,0.25
2019-02-27T07:46:57.282Z,0.40
2019-02-27T07:49:28.314Z,0.35
2019-02-27T07:51:59.430Z,0.54
2019-02-27T07:54:31.265Z,0.81
2019-02-27T07:57:03.111Z,0.84
2019-02-27T07:59:37.982Z,0.88
2019-02-27T08:02:08.419Z,0.98
2019-02-27T08:04:40.183Z,1.13
2019-02-27T08:07:12.410Z,1.36
2019-02-27T08:09:44.901Z,1.48
2019-02-27T08:12:17.545Z,1.52
2019-02-27T08:14:50.522Z,1.68
2019-02-27T08:17:23.549Z,1.75
2019-02-27T08:19:55.276Z,1.84
2019-02-27T08:22:27.098Z,1.99
2019-02-27T08:24:59.392Z,2.15
2019-02-27T08:27:31.456Z,2.23
2019-02-27T08:30:03.364Z,2.36
2019-02-27T08:32:36.214Z,2.50
2019-02-27T08:35:08.387Z,2.61
2019-02-27T08:37:40.198Z,2.76
2019-02-27T08:40:12.396Z,2.93
2019-02-27T08:42:44.372Z,3.03
2019-02-27T08:45:19.949Z,3.18
2019-02-27T08:47:49.928Z,3.35
2019-02-27T08:50:22.018Z,3.54
2019-02-27T08:52:53.863Z,3.73
2019-02-27T08:55:25.770Z,3.92
2019-02-27T08:57:57.588Z,4.15
2019-02-27T09:00:30.022Z,4.42
2019-02-27T09:03:02.888Z,4.62
2019-02-27T09:05:35.668Z,4.71
2019-02-27T09:08:10.134Z,4.86
2019-02-27T09:10:42.054Z,5.07
2019-02-27T09:13:13.870Z,5.25
2019-02-27T09:15:45.609Z,5.39
2019-02-27T09:18:17.350Z,5.50
2019-02-27T09:20:53.071Z,5.64
2019-02-27T09:23:22.655Z,5.81
2019-02-27T09:25:57.208Z,5.88
2019-02-27T09:28:27.980Z,5.94
2019-02-27T09:31:03.305Z,6.14
2019-02-27T09:33:38.810Z,6.20
2019-02-27T09:36:08.047Z,6.44
2019-02-27T09:38:40.594Z,6.60
2019-02-27T09:41:13.100Z,6.98
2019-02-27T09:43:45.797Z,7.28
2019-02-27T09:46:19.515Z,7.33
2019-02-27T09:48:51.362Z,7.50
2019-02-27T09:51:23.268Z,7.65
2019-02-27T09:53:55.157Z,7.71
2019-02-27T09:56:29.203Z,7.95
2019-02-27T09:59:00.440Z,8.11
2019-02-27T10:01:35.156Z,8.26
2019-02-27T10:04:05.903Z,8.61
2019-02-27T10:06:40.427Z,8.66
2019-02-27T10:09:17.047Z,8.77
2019-02-27T10:11:48.924Z,8.78
2019-02-27T10:14:20.753Z,9.44
2019-02-27T10:16:52.860Z,9.60
2019-02-27T10:19:26.909Z,9.54
2019-02-27T10:21:58.047Z,9.74
2019-02-27T10:24:29.803Z,10.26
2019-02-27T10:27:01.621Z,10.20
2019-02-27T10:29:33.454Z,10.14
2019-02-27T10:32:05.420Z,10.57
2019-02-27T10:34:37.239Z,11.27
2019-02-27T10:37:12.839Z,11.05
2019-02-27T10:39:43.004Z,10.90
2019-02-27T10:42:14.915Z,11.02
2019-02-27T10:44:46.664Z,10.99
2019-02-27T10:47:18.910Z,11.42
2019-02-27T10:49:50.750Z,11.50
2019-02-27T10:52:24.425Z,11.65
2019-02-27T10:54:56.147Z,11.92
2019-02-27T10:57:31.579Z,11.95
2019-02-27T11:00:01.547Z,12.09
2019-02-27T11:02:34.901Z,12.13
2019-02-27T11:05:06.979Z,12.67
2019-02-27T11:07:38.958Z,12.74
2019-02-27T11:10:12.160Z,13.11
2019-02-27T11:12:43.974Z,13.33
2019-02-27T11:15:16.904Z,13.05
2019-02-27T11:17:49.069Z,13.20
2019-02-27T11:20:22.061Z,13.39
2019-02-27T11:22:54.948Z,13.35
2019-02-27T11:25:27.005Z,13.65
2019-02-27T11:27:59.011Z,13.88
2019-02-27T11:30:36.773Z,14.11
2019-02-27T11:33:07.843Z,14.37
2019-02-27T11:35:39.807Z,14.49
2019-02-27T11:38:11.550Z,14.67
2019-02-27T11:40:43.305Z,14.51
2019-02-27T11:43:17.158Z,14.84
2019-02-27T11:45:48.646Z,15.22
2019-02-27T11:48:22.859Z,15.86
2019-02-27T11:50:53.932Z,16.15
2019-02-27T11:53:25.754Z,16.70
2019-02-27T11:55:57.510Z,16.05
2019-02-27T11:58:29.287Z,15.01
2019-02-27T12:01:01.200Z,15.32
2019-02-27T12:03:33.080Z,15.50
2019-02-27T12:06:05.305Z,15.92
2019-02-27T12:08:38.660Z,16.11
2019-02-27T12:11:13.194Z,16.28
2019-02-27T12:13:45.343Z,16.11
2019-02-27T12:16:18.345Z,16.82
2019-02-27T12:18:50.245Z,17.23
2019-02-27T12:21:22.074Z,17.53
2019-02-27T12:23:53.819Z,17.53
2019-02-27T12:26:25.844Z,17.73
2019-02-27T12:28:57.674Z,17.89
2019-02-27T12:31:29.653Z,18.35
2019-02-27T12:34:03.262Z,18.48
2019-02-27T12:36:34.908Z,18.59
2019-02-27T12:39:07.986Z,18.65
2019-02-27T12:41:40.249Z,18.81
2019-02-27T12:44:12.146Z,18.90
2019-02-27T12:46:43.964Z,19.13
2019-02-27T12:49:16.871Z,19.22
2019-02-27T12:51:49.179Z,19.27
2019-02-27T12:54:21.016Z,19.52
2019-02-27T12:56:52.841Z,19.28
2019-02-27T12:59:24.738Z,19.59
2019-02-27T13:01:56.552Z,19.53
2019-02-27T13:04:28.382Z,19.57
2019-02-27T13:07:00.212Z,19.94
2019-02-27T13:09:31.947Z,20.01
2019-02-27T13:12:03.812Z,20.25
2019-02-27T13:14:35.759Z,20.70
2019-02-27T13:17:07.597Z,20.62
2019-02-27T13:19:39.334Z,20.79
2019-02-27T13:22:12.150Z,20.78
2019-02-27T13:24:43.893Z,20.97
2019-02-27T13:27:15.669Z,20.88
2019-02-27T13:29:47.425Z,20.54
2019-02-27T13:32:19.272Z,21.02
2019-02-27T13:34:51.008Z,21.30
2019-02-27T13:37:22.897Z,21.40
2019-02-27T13:39:57.309Z,21.62
2019-02-27T13:42:28.145Z,20.83
2019-02-27T13:45:00.303Z,21.29
2019-02-27T13:47:32.251Z,21.62
2019-02-27T13:50:04.259Z,22.06
2019-02-27T13:52:36.145Z,21.83
2019-02-27T13:55:11.162Z,22.19
2019-02-27T13:57:42.286Z,22.66
2019-02-27T14:00:21.558Z,22.70
2019-02-27T14:02:53.445Z,22.64
2019-02-27T14:05:25.472Z,22.80
2019-02-27T14:07:58.597Z,22.72
2019-02-27T14:10:31.636Z,23.05
2019-02-27T14:13:08.930Z,22.77
2019-02-27T14:15:37.047Z,23.13
2019-02-27T14:18:09.009Z,23.07
2019-02-27T14:20:40.897Z,23.03
2019-02-27T14:23:14.540Z,22.60
2019-02-27T14:25:46.930Z,22.11
2019-02-27T14:28:20.986Z,22.31
2019-02-27T14:30:52.322Z,21.84
2019-02-27T14:33:24.158Z,22.10
2019-02-27T14:35:55.980Z,22.38
2019-02-27T14:38:27.751Z,22.46
2019-02-27T14:40:59.578Z,22.48
2019-02-27T14:43:31.476Z,22.38
2019-02-27T14:46:03.223Z,22.63
2019-02-27T14:48:35.144Z,22.93
2019-02-27T14:51:08.005Z,23.14
2019-02-27T14:53:40.562Z,23.18
2019-02-27T14:56:12.464Z,22.80
2019-02-27T14:58:44.217Z,23.37
2019-02-27T15:01:16.037Z,23.68
2019-02-27T15:03:47.863Z,23.12
2019-02-27T15:06:20.045Z,23.28
2019-02-27T15:08:57.940Z,22.87
2019-02-27T15:11:25.403Z,23.08
2019-02-27T15:13:59.651Z,23.55
2019-02-27T15:16:30.775Z,23.58
2019-02-27T15:19:02.871Z,23.81
2019-02-27T15:21:34.645Z,24.00
2019-02-27T15:24:06.479Z,23.75
2019-02-27T15:26:45.027Z,23.76
2019-02-27T15:29:12.033Z,23.84
2019-02-27T15:31:43.868Z,23.63
2019-02-27T15:34:16.027Z,23.30
2019-02-27T15:36:47.831Z,23.64
2019-02-27T15:39:21.150Z,23.41
2019-02-27T15:41:53.569Z,23.40
2019-02-27T15:44:25.425Z,23.74
2019-02-27T15:46:57.394Z,23.92
2019-02-27T15:49:29.381Z,23.83
2019-02-27T15:52:06.600Z,23.88
2019-02-27T15:54:35.199Z,23.81
2019-02-27T15:57:07.152Z,23.80
2019-02-27T15:59:41.742Z,23.67
2019-02-27T16:02:12.615Z,23.61
2019-02-27T16:04:44.638Z,23.11
2019-02-27T16:07:16.754Z,23.12
2019-02-27T16:09:48.516Z,23.02
2019-02-27T16:12:20.347Z,22.71
2019-02-27T16:14:52.410Z,22.26
2019-02-27T16:17:24.222Z,21.72
2019-02-27T16:19:56.956Z,21.33
2019-02-27T16:22:31.371Z,20.95
2019-02-27T16:25:02.384Z,20.61
2019-02-27T16:27:35.724Z,20.31
2019-02-27T16:30:11.302Z,20.00
2019-02-27T16:32:47.760Z,19.53
2019-02-27T16:35:16.898Z,19.06
2019-02-27T16:37:48.794Z,18.46
2019-02-27T16:40:20.810Z,18.17
2019-02-27T16:42:52.698Z,17.88
2019-02-27T16:45:31.852Z,17.58
2019-02-27T16:48:01.951Z,17.31
2019-02-27T16:50:34.039Z,16.95
2019-02-27T16:53:05.993Z,16.68
2019-02-27T16:55:39.511Z,16.58
2019-02-27T16:58:12.372Z,16.47
2019-02-27T17:00:44.324Z,16.17
2019-02-27T17:03:17.394Z,15.85
2019-02-27T17:08:28.413Z,15.29
2019-02-27T17:11:00.258Z,14.93
2019-02-27T17:13:32.139Z,14.50
2019-02-27T17:16:04.125Z,14.05
2019-02-27T17:18:36.195Z,13.93
2019-02-27T17:21:07.943Z,13.64
2019-02-27T17:23:43.786Z,13.50
2019-02-27T17:26:14.307Z,13.28
2019-02-27T17:28:48.671Z,13.06
2019-02-27T17:31:19.596Z,12.81
2019-02-27T17:33:51.398Z,12.46
2019-02-27T17:36:23.170Z,12.30
2019-02-27T17:38:56.128Z,12.19
2019-02-27T17:41:27.895Z,12.05
2019-02-27T17:44:03.721Z,11.94
2019-02-27T17:46:34.131Z,11.57
2019-02-27T17:49:07.327Z,11.38
2019-02-27T17:51:40.505Z,11.18
2019-02-27T17:54:13.611Z,11.14
2019-02-27T17:56:47.183Z,11.05
2019-02-27T17:59:20.048Z,10.95
2019-02-27T18:01:52.670Z,10.75
2019-02-27T18:04:26.134Z,10.65
2019-02-27T18:07:00.538Z,10.51
2019-02-27T18:09:31.424Z,10.40
2019-02-27T18:12:03.344Z,10.23
2019-02-27T18:14:35.091Z,10.25
2019-02-27T18:17:07.586Z,10.14
2019-02-27T18:19:39.359Z,10.09
2019-02-27T18:22:14.712Z,10.03
2019-02-27T18:24:45.255Z,9.91
2019-02-27T18:27:17.536Z,9.83
2019-02-27T18:29:49.475Z,9.55
2019-02-27T18:32:21.299Z,9.21
2019-02-27T18:34:54.685Z,9.01
2019-02-27T18:37:26.698Z,8.96
2019-02-27T18:39:58.705Z,8.67
2019-02-27T18:42:30.583Z,8.63
2019-02-27T18:45:02.432Z,8.57
2019-02-27T18:47:35.274Z,8.57
2019-02-27T18:50:08.266Z,8.66
2019-02-27T18:52:40.300Z,8.60
2019-02-27T18:55:13.047Z,8.53
2019-02-27T18:57:47.133Z,8.50
2019-02-27T19:00:21.818Z,8.52
2019-02-27T19:02:55.035Z,8.56
2019-02-27T19:05:26.911Z,8.56
2019-02-27T19:07:58.845Z,8.36
2019-02-27T19:10:30.937Z,7.96
2019-02-27T19:13:02.944Z,7.75
2019-02-27T19:15:35.149Z,7.52
2019-02-27T19:18:07.505Z,7.32
2019-02-27T19:20:39.617Z,7.23
2019-02-27T19:23:17.399Z,7.04
2019-02-27T19:25:45.610Z,7.06
2019-02-27T19:28:17.850Z,7.02
2019-02-27T19:30:49.810Z,7.01
2019-02-27T19:33:21.818Z,7.07
2019-02-27T19:35:56.343Z,6.97
2019-02-27T19:38:29.121Z,6.86
2019-02-27T19:41:01.301Z,6.66
2019-02-27T19:43:34.934Z,6.47
2019-02-27T19:46:09.563Z,6.37
2019-02-27T19:48:40.584Z,6.38
2019-02-27T19:51:12.551Z,6.30
2019-02-27T19:53:44.554Z,6.22
2019-02-27T19:56:16.555Z,6.16
2019-02-27T19:58:51.122Z,6.05
2019-02-27T20:01:21.984Z,5.97
2019-02-27T20:03:53.815Z,5.86
2019-02-27T20:06:27.984Z,5.74
2019-02-27T20:08:59.199Z,5.68
2019-02-27T20:11:31.109Z,5.68
2019-02-27T20:14:03.238Z,5.41
2019-02-27T20:16:35.037Z,5.45
2019-02-27T20:19:06.945Z,5.31
2019-02-27T20:21:38.839Z,5.25
2019-02-27T20:24:14.713Z,5.36
2019-02-27T20:26:45.363Z,5.35
2019-02-27T20:29:17.748Z,5.39
2019-02-27T20:31:51.468Z,5.35
2019-02-27T20:34:22.949Z,5.20
2019-02-27T20:36:54.736Z,5.22
2019-02-27T20:39:27.615Z,5.38
2019-02-27T20:41:59.436Z,5.43
2019-02-27T20:44:33.937Z,5.31
2019-02-27T20:47:05.025Z,5.28
2019-02-27T20:49:36.787Z,5.15
2019-02-27T20:52:14.516Z,5.17
2019-02-27T20:54:42.053Z,5.06
2019-02-27T20:57:13.811Z,4.91
2019-02-27T20:59:45.575Z,4.91
2019-02-27T21:02:18.659Z,4.88
2019-02-27T21:04:50.910Z,4.75
2019-02-27T21:07:26.063Z,4.73
2019-02-27T21:09:56.471Z,4.60
2019-02-27T21:12:28.469Z,4.45
2019-02-27T21:15:00.945Z,4.38
2019-02-27T21:17:32.785Z,4.16
2019-02-27T21:20:05.126Z,4.28
2019-02-27T21:22:36.882Z,4.17
2019-02-27T21:25:12.078Z,4.05
2019-02-27T21:27:44.075Z,4.09
2019-02-27T21:30:18.804Z,3.89
2019-02-27T21:32:51.905Z,3.84
2019-02-27T21:35:28.888Z,3.70
2019-02-27T21:37:58.307Z,3.74
2019-02-27T21:40:30.062Z,3.71
2019-02-27T21:43:01.883Z,3.76
2019-02-27T21:45:37.121Z,3.76
2019-02-27T21:48:07.478Z,3.74
2019-02-27T21:50:39.895Z,3.68
2019-02-27T21:53:12.314Z,3.85
2019-02-27T21:55:44.690Z,3.94
2019-02-27T21:58:20.675Z,3.81
2019-02-27T22:00:52.028Z,3.56
2019-02-27T22:03:23.906Z,3.46
2019-02-27T22:05:55.798Z,3.34
2019-02-27T22:08:27.625Z,3.24
2019-02-27T22:10:59.533Z,3.05
2019-02-27T22:13:32.343Z,2.96
2019-02-27T22:16:04.266Z,2.91
2019-02-27T22:18:36.066Z,2.85
2019-02-27T22:21:07.892Z,2.87
2019-02-27T22:23:40.078Z,2.71
2019-02-27T22:26:11.810Z,2.70
2019-02-27T22:28:43.668Z,2.70
2019-02-27T22:31:15.416Z,2.60
2019-02-27T22:33:47.486Z,2.46
2019-02-27T22:36:19.253Z,2.46
2019-02-27T22:38:51.072Z,2.41
2019-02-27T22:41:22.926Z,2.38
2019-02-27T22:43:55.745Z,2.40
2019-02-27T22:46:28.266Z,2.39
2019-02-27T22:49:01.207Z,2.43
2019-02-27T22:51:33.001Z,2.31
2019-02-27T22:54:04.940Z,2.29
2019-02-27T22:56:36.709Z,2.30
2019-02-27T22:59:08.554Z,2.29
2019-02-27T23:01:49.410Z,2.40
2019-02-27T23:04:18.303Z,2.29
2019-02-27T23:06:50.132Z,2.21
2019-02-27T23:09:25.115Z,2.07
2019-02-27T23:11:55.826Z,1.98
2019-02-27T23:14:27.683Z,2.15
2019-02-27T23:17:00.564Z,2.15
2019-02-27T23:19:33.181Z,2.08
2019-02-27T23:22:05.181Z,2.23
2019-02-27T23:24:37.087Z,2.04
2019-02-27T23:27:08.985Z,2.16
2019-02-27T23:29:40.832Z,2.09
2019-02-27T23:32:13.627Z,2.05
2019-02-27T23:34:45.380Z,1.96
2019-02-27T23:37:17.275Z,2.00
2019-02-27T23:39:49.063Z,1.93
2019-02-27T23:42:21.005Z,1.83
2019-02-27T23:44:52.932Z,1.83
2019-02-27T23:47:24.795Z,1.73
2019-02-27T23:49:56.670Z,1.62
2019-02-27T23:52:28.493Z,1.54
2019-02-27T23:55:00.367Z,1.41
2019-02-27T23:57:32.106Z,1.38
